createdAt,value
2022-08-27T00:00:22.073Z,25.72
2022-08-27T00:02:54.416Z,25.36
2022-08-27T00:05:26.651Z,25.37
2022-08-27T00:07:57.939Z,25.06
2022-08-27T00:10:28.778Z,24.91
2022-08-27T00:13:12.376Z,25.17
2022-08-27T00:15:41.193Z,25.27
2022-08-27T00:18:11.810Z,25.29
2022-08-27T00:20:41.766Z,25.21
2022-08-27T00:23:13.611Z,25.31
2022-08-27T00:25:45.787Z,25.34
2022-08-27T00:28:19.515Z,25.27
2022-08-27T00:30:49.692Z,25.17
2022-08-27T00:33:23.189Z,25.18
2022-08-27T00:35:54.322Z,25.36
2022-08-27T00:38:25.092Z,25.24
2022-08-27T00:40:55.863Z,25.28
2022-08-27T00:43:32.312Z,25.05
2022-08-27T00:46:08.280Z,24.98
2022-08-27T00:48:41.920Z,25.11
2022-08-27T00:51:13.106Z,24.98
2022-08-27T00:53:47.319Z,24.90
2022-08-27T00:56:25.608Z,24.97
2022-08-27T00:58:59.351Z,24.90
2022-08-27T01:01:31.365Z,24.73
2022-08-27T01:04:06.641Z,24.87
2022-08-27T01:06:38.528Z,24.58
2022-08-27T01:09:14.176Z,24.57
2022-08-27T01:11:45.402Z,24.70
2022-08-27T01:14:24.788Z,24.73
2022-08-27T01:16:58.502Z,24.29
2022-08-27T01:19:38.896Z,24.15
2022-08-27T01:22:21.640Z,24.25
2022-08-27T01:24:59.738Z,24.10
2022-08-27T01:27:34.869Z,23.98
2022-08-27T01:30:08.680Z,23.37
2022-08-27T01:32:39.371Z,23.57
2022-08-27T01:35:18.318Z,23.36
2022-08-27T01:37:50.218Z,23.49
2022-08-27T01:40:23.206Z,23.56
2022-08-27T01:42:56.089Z,23.91
2022-08-27T01:45:33.265Z,23.48
2022-08-27T01:48:05.284Z,23.52
2022-08-27T01:50:40.294Z,23.40
2022-08-27T01:53:16.591Z,23.73
2022-08-27T01:55:53.506Z,23.17
2022-08-27T01:58:29.074Z,23.66
2022-08-27T02:01:07.320Z,23.46
2022-08-27T02:03:40.629Z,23.27
2022-08-27T02:06:17.247Z,23.34
2022-08-27T02:08:52.990Z,23.51
2022-08-27T02:11:24.371Z,23.61
2022-08-27T02:13:57.115Z,23.73
2022-08-27T02:16:29.079Z,23.64
2022-08-27T02:19:02.434Z,23.58
2022-08-27T02:21:32.870Z,23.71
2022-08-27T02:24:07.114Z,23.36
2022-08-27T02:26:37.833Z,23.61
2022-08-27T02:29:11.084Z,23.20
2022-08-27T02:31:42.682Z,23.49
2022-08-27T02:34:16.001Z,23.53
2022-08-27T02:36:48.844Z,23.52
2022-08-27T02:39:20.035Z,23.16
2022-08-27T02:41:50.436Z,23.40
2022-08-27T02:44:23.109Z,23.11
2022-08-27T02:46:55.741Z,23.07
2022-08-27T02:49:32.039Z,23.35
2022-08-27T02:52:04.641Z,23.53
2022-08-27T02:54:37.291Z,23.47
2022-08-27T02:57:09.074Z,23.02
2022-08-27T02:59:40.405Z,22.89
2022-08-27T03:02:11.303Z,22.97
2022-08-27T03:04:42.716Z,23.09
2022-08-27T03:07:14.226Z,23.14
2022-08-27T03:09:53.526Z,23.38
2022-08-27T03:12:28.252Z,23.23
2022-08-27T03:15:00.832Z,23.34
2022-08-27T03:17:53.013Z,23.19
2022-08-27T03:20:25.973Z,23.18
2022-08-27T03:22:55.507Z,23.05
2022-08-27T03:25:26.946Z,22.76
2022-08-27T03:28:01.647Z,22.97
2022-08-27T03:30:34.258Z,22.89
2022-08-27T03:33:06.767Z,22.89
2022-08-27T03:35:38.727Z,22.68
2022-08-27T03:38:08.222Z,22.80
2022-08-27T03:40:38.944Z,23.02
2022-08-27T03:43:08.015Z,23.07
2022-08-27T03:46:00.780Z,23.12
2022-08-27T03:48:27.337Z,23.04
2022-08-27T03:50:57.880Z,23.18
2022-08-27T03:53:33.047Z,23.04
2022-08-27T03:56:04.508Z,22.82
2022-08-27T03:58:36.437Z,22.99
2022-08-27T04:01:07.698Z,22.99
2022-08-27T04:03:41.425Z,22.97
2022-08-27T04:06:10.322Z,22.90
2022-08-27T04:08:42.019Z,22.87
2022-08-27T04:11:15.177Z,22.88
2022-08-27T04:13:49.022Z,22.81
2022-08-27T04:16:18.147Z,22.98
2022-08-27T04:18:48.956Z,22.89
2022-08-27T04:21:19.864Z,22.79
2022-08-27T04:23:49.234Z,22.81
2022-08-27T04:26:20.133Z,22.65
2022-08-27T04:28:53.201Z,22.66
2022-08-27T04:31:26.820Z,22.85
2022-08-27T04:33:58.479Z,23.16
2022-08-27T04:36:29.213Z,22.94
2022-08-27T04:39:08.033Z,22.56
2022-08-27T04:41:38.414Z,22.73
2022-08-27T04:44:11.141Z,23.13
2022-08-27T04:46:40.925Z,23.11
2022-08-27T04:49:15.472Z,22.91
2022-08-27T04:51:45.107Z,23.31
2022-08-27T04:54:18.312Z,23.30
2022-08-27T04:56:51.676Z,22.91
2022-08-27T04:59:24.472Z,22.92
2022-08-27T05:01:54.020Z,23.11
2022-08-27T05:04:26.549Z,22.88
2022-08-27T05:06:58.201Z,22.93
2022-08-27T05:09:37.610Z,22.95
2022-08-27T05:12:09.569Z,22.89
2022-08-27T05:14:39.892Z,23.30
2022-08-27T05:17:09.730Z,23.44
2022-08-27T05:19:41.442Z,23.58
2022-08-27T05:22:11.155Z,23.29
2022-08-27T05:24:44.242Z,23.34
2022-08-27T05:27:16.676Z,23.37
2022-08-27T05:29:52.147Z,23.61
2022-08-27T05:32:22.501Z,23.50
2022-08-27T05:34:54.479Z,23.70
2022-08-27T05:37:24.017Z,23.74
2022-08-27T05:39:54.800Z,23.89
2022-08-27T05:42:25.436Z,24.14
2022-08-27T05:44:57.157Z,23.96
2022-08-27T05:47:29.838Z,24.10
2022-08-27T05:50:00.480Z,24.02
2022-08-27T05:52:31.232Z,24.32
2022-08-27T05:55:02.225Z,24.51
2022-08-27T05:57:31.563Z,24.69
2022-08-27T06:00:25.231Z,24.88
2022-08-27T06:02:55.449Z,24.90
2022-08-27T06:05:24.549Z,24.95
2022-08-27T06:07:53.622Z,25.18
2022-08-27T06:10:23.860Z,25.05
2022-08-27T06:12:56.985Z,25.32
2022-08-27T06:15:28.629Z,25.41
2022-08-27T06:18:01.014Z,25.56
2022-08-27T06:20:32.722Z,25.70
2022-08-27T06:23:02.743Z,25.62
2022-08-27T06:25:34.077Z,25.56
2022-08-27T06:28:04.064Z,25.55
2022-08-27T06:30:39.064Z,25.89
2022-08-27T06:33:11.484Z,25.89
2022-08-27T06:35:40.437Z,25.90
2022-08-27T06:38:08.885Z,26.28
2022-08-27T06:40:42.559Z,26.48
2022-08-27T06:43:19.356Z,26.58
2022-08-27T06:45:51.872Z,26.76
2022-08-27T06:48:20.944Z,26.82
2022-08-27T06:50:49.517Z,27.01
2022-08-27T06:53:24.339Z,27.11
2022-08-27T06:55:53.902Z,27.34
2022-08-27T06:58:25.009Z,27.60
2022-08-27T07:00:53.472Z,27.60
2022-08-27T07:03:23.747Z,27.70
2022-08-27T07:05:54.862Z,27.86
2022-08-27T07:08:27.605Z,27.83
2022-08-27T07:10:59.510Z,27.98
2022-08-27T07:13:31.665Z,28.09
2022-08-27T07:16:08.791Z,28.07
2022-08-27T07:18:39.899Z,28.25
2022-08-27T07:21:12.809Z,28.11
2022-08-27T07:23:42.569Z,28.43
2022-08-27T07:26:13.841Z,28.52
2022-08-27T07:28:50.675Z,28.61
2022-08-27T07:31:27.376Z,28.62
2022-08-27T07:33:57.605Z,28.67
2022-08-27T07:36:31.706Z,28.87
2022-08-27T07:39:01.958Z,28.85
2022-08-27T07:41:54.673Z,28.99
2022-08-27T07:44:34.276Z,28.88
2022-08-27T07:47:05.665Z,28.91
2022-08-27T07:49:35.911Z,29.06
2022-08-27T07:52:09.041Z,29.20
2022-08-27T07:54:39.382Z,29.37
2022-08-27T07:57:13.157Z,29.57
2022-08-27T07:59:45.747Z,29.56
2022-08-27T08:02:15.926Z,29.72
2022-08-27T08:04:49.804Z,29.90
2022-08-27T08:07:19.090Z,29.89
2022-08-27T08:09:54.056Z,30.32
2022-08-27T08:12:26.601Z,30.31
2022-08-27T08:14:59.180Z,30.41
2022-08-27T08:17:29.646Z,30.71
2022-08-27T08:20:20.033Z,30.80
2022-08-27T08:22:49.547Z,30.97
2022-08-27T08:25:22.052Z,30.86
2022-08-27T08:27:54.256Z,30.76
2022-08-27T08:30:24.818Z,30.80
2022-08-27T08:32:55.840Z,31.13
2022-08-27T08:35:27.524Z,31.15
2022-08-27T08:38:04.349Z,31.49
2022-08-27T08:40:39.763Z,31.72
2022-08-27T08:43:20.118Z,31.63
2022-08-27T08:45:52.289Z,31.67
2022-08-27T08:48:25.008Z,31.80
2022-08-27T08:51:06.878Z,31.84
2022-08-27T08:53:53.642Z,32.22
2022-08-27T08:56:33.249Z,32.41
2022-08-27T08:59:24.302Z,32.55
2022-08-27T09:01:56.932Z,32.54
2022-08-27T09:04:29.833Z,32.90
2022-08-27T09:07:10.858Z,32.62
2022-08-27T09:10:02.757Z,32.77
2022-08-27T09:12:35.306Z,32.74
2022-08-27T09:15:12.478Z,33.03
2022-08-27T09:17:46.097Z,33.03
2022-08-27T09:20:19.236Z,32.96
2022-08-27T09:23:07.558Z,33.10
2022-08-27T09:25:42.694Z,33.05
2022-08-27T09:28:33.261Z,33.18
2022-08-27T09:31:13.485Z,33.42
2022-08-27T09:33:56.114Z,33.49
2022-08-27T09:36:27.411Z,33.72
2022-08-27T09:39:00.838Z,33.69
2022-08-27T09:41:36.795Z,33.88
2022-08-27T09:44:12.755Z,34.13
2022-08-27T09:46:53.761Z,34.28
2022-08-27T09:49:24.380Z,34.14
2022-08-27T09:51:57.514Z,34.25
2022-08-27T09:54:42.730Z,34.61
2022-08-27T09:57:16.469Z,34.45
2022-08-27T09:59:55.768Z,34.28
2022-08-27T10:02:27.305Z,34.76
2022-08-27T10:05:04.109Z,34.91
2022-08-27T10:07:58.318Z,34.51
2022-08-27T10:10:48.207Z,34.52
2022-08-27T10:13:42.039Z,34.78
2022-08-27T10:16:26.820Z,35.27
2022-08-27T10:19:33.354Z,35.45
2022-08-27T10:22:19.252Z,35.73
2022-08-27T10:25:05.245Z,36.07
2022-08-27T10:28:05.661Z,35.88
2022-08-27T10:30:57.009Z,36.15
2022-08-27T10:33:37.079Z,36.38
2022-08-27T10:36:25.161Z,36.71
2022-08-27T10:39:39.669Z,36.42
2022-08-27T10:42:33.541Z,36.57
2022-08-27T10:45:55.792Z,36.67
2022-08-27T10:49:18.354Z,36.39
2022-08-27T10:52:08.108Z,36.35
2022-08-27T10:54:44.703Z,36.91
2022-08-27T10:57:45.405Z,37.29
2022-08-27T11:00:21.816Z,37.29
2022-08-27T11:03:03.674Z,37.19
2022-08-27T11:05:37.125Z,37.00
2022-08-27T11:08:29.916Z,36.84
2022-08-27T11:11:56.952Z,37.23
2022-08-27T11:14:08.691Z,37.26
2022-08-27T11:16:51.762Z,37.25
2022-08-27T11:19:26.572Z,36.57
2022-08-27T11:22:26.342Z,37.18
2022-08-27T11:24:57.685Z,37.31
2022-08-27T11:27:29.512Z,37.76
2022-08-27T11:30:16.773Z,37.82
2022-08-27T11:33:21.398Z,38.19
2022-08-27T11:35:56.552Z,38.30
2022-08-27T11:38:29.412Z,38.33
2022-08-27T11:41:09.323Z,37.99
2022-08-27T11:43:38.141Z,37.89
2022-08-27T11:46:08.916Z,38.01
2022-08-27T11:48:36.984Z,38.10
2022-08-27T11:51:09.338Z,38.38
2022-08-27T11:53:54.691Z,37.97
2022-08-27T11:56:25.824Z,38.14
2022-08-27T11:58:54.323Z,38.38
2022-08-27T12:01:28.469Z,38.49
2022-08-27T12:04:07.429Z,38.49
2022-08-27T12:06:50.434Z,38.46
2022-08-27T12:09:22.366Z,38.91
2022-08-27T12:12:11.687Z,39.11
2022-08-27T12:14:53.410Z,39.01
2022-08-27T12:17:46.615Z,38.91
2022-08-27T12:20:46.357Z,38.96
2022-08-27T12:23:45.310Z,39.10
2022-08-27T12:26:17.575Z,39.22
2022-08-27T12:28:47.843Z,38.49
2022-08-27T12:31:21.956Z,38.65
2022-08-27T12:33:57.377Z,38.69
2022-08-27T12:36:28.380Z,38.98
2022-08-27T12:38:58.629Z,38.92
2022-08-27T12:41:43.609Z,39.07
2022-08-27T12:44:34.539Z,38.42
2022-08-27T12:47:07.945Z,38.72
2022-08-27T12:49:46.494Z,38.14
2022-08-27T12:52:35.676Z,38.16
2022-08-27T12:55:30.712Z,38.33
2022-08-27T12:57:59.286Z,37.88
2022-08-27T13:00:36.137Z,37.79
2022-08-27T13:03:11.265Z,37.84
2022-08-27T13:05:45.733Z,37.87
2022-08-27T13:08:27.938Z,38.23
2022-08-27T13:10:58.076Z,38.51
2022-08-27T13:13:26.577Z,38.68
2022-08-27T13:15:59.625Z,38.18
2022-08-27T13:18:29.553Z,38.66
2022-08-27T13:21:33.237Z,38.43
2022-08-27T13:24:06.566Z,38.30
2022-08-27T13:26:37.723Z,38.14
2022-08-27T13:29:13.732Z,38.40
2022-08-27T13:31:42.638Z,37.97
2022-08-27T13:34:16.021Z,37.82
2022-08-27T13:37:02.575Z,38.09
2022-08-27T13:39:38.352Z,37.75
2022-08-27T13:42:09.661Z,38.06
2022-08-27T13:44:40.209Z,38.19
2022-08-27T13:47:18.551Z,38.34
2022-08-27T13:49:46.514Z,38.68
2022-08-27T13:53:05.737Z,38.65
2022-08-27T13:55:40.197Z,37.89
2022-08-27T13:58:14.414Z,37.26
2022-08-27T14:00:43.597Z,37.10
2022-08-27T14:03:27.122Z,37.38
2022-08-27T14:05:57.239Z,37.42
2022-08-27T14:08:31.826Z,37.81
2022-08-27T14:11:07.186Z,37.78
2022-08-27T14:13:43.520Z,37.43
2022-08-27T14:16:29.130Z,37.00
2022-08-27T14:19:11.563Z,37.15
2022-08-27T14:21:42.515Z,36.89
2022-08-27T14:24:12.221Z,36.77
2022-08-27T14:26:40.425Z,37.20
2022-08-27T14:29:11.847Z,37.42
2022-08-27T14:31:41.966Z,37.28
2022-08-27T14:34:12.164Z,36.72
2022-08-27T14:36:42.410Z,37.30
2022-08-27T14:39:11.313Z,37.21
2022-08-27T14:41:39.814Z,37.30
2022-08-27T14:44:09.393Z,37.55
2022-08-27T14:46:41.422Z,37.92
2022-08-27T14:49:18.155Z,37.90
2022-08-27T14:51:46.406Z,37.73
2022-08-27T14:54:16.060Z,37.23
2022-08-27T14:56:44.743Z,37.85
2022-08-27T14:59:12.471Z,37.69
2022-08-27T15:01:41.262Z,38.10
2022-08-27T15:04:09.581Z,38.01
2022-08-27T15:06:37.599Z,37.92
2022-08-27T15:09:06.509Z,37.38
2022-08-27T15:11:36.655Z,37.04
2022-08-27T15:14:06.722Z,37.25
2022-08-27T15:16:39.046Z,37.75
2022-08-27T15:19:08.855Z,37.52
2022-08-27T15:21:39.755Z,37.66
2022-08-27T15:24:28.546Z,37.55
2022-08-27T15:27:00.120Z,37.10
2022-08-27T15:29:30.074Z,36.86
2022-08-27T15:31:58.637Z,37.16
2022-08-27T15:34:27.653Z,36.67
2022-08-27T15:36:57.305Z,36.98
2022-08-27T15:39:28.722Z,37.09
2022-08-27T15:42:07.268Z,37.25
2022-08-27T15:44:39.557Z,37.03
2022-08-27T15:47:07.396Z,36.54
2022-08-27T15:49:35.728Z,36.27
2022-08-27T15:52:04.797Z,35.89
2022-08-27T15:54:33.047Z,35.82
2022-08-27T15:57:02.574Z,36.20
2022-08-27T15:59:30.342Z,36.37
2022-08-27T16:02:00.717Z,36.28
2022-08-27T16:04:30.192Z,36.11
2022-08-27T16:06:58.299Z,36.27
2022-08-27T16:09:28.612Z,35.95
2022-08-27T16:11:58.636Z,36.01
2022-08-27T16:14:27.008Z,36.16
2022-08-27T16:16:56.440Z,35.97
2022-08-27T16:19:24.976Z,35.80
2022-08-27T16:21:54.482Z,35.57
2022-08-27T16:24:23.084Z,34.88
2022-08-27T16:26:52.013Z,34.90
2022-08-27T16:29:20.867Z,34.89
2022-08-27T16:31:50.128Z,34.70
2022-08-27T16:34:22.809Z,34.89
2022-08-27T16:36:51.107Z,35.13
2022-08-27T16:39:20.369Z,34.95
2022-08-27T16:41:49.423Z,34.73
2022-08-27T16:44:18.087Z,34.93
2022-08-27T16:46:46.850Z,34.69
2022-08-27T16:49:33.468Z,34.54
2022-08-27T16:52:03.560Z,34.27
2022-08-27T16:54:34.882Z,34.01
2022-08-27T16:57:02.926Z,34.10
2022-08-27T16:59:31.603Z,33.92
2022-08-27T17:01:59.575Z,33.78
2022-08-27T17:04:36.713Z,33.53
2022-08-27T17:07:06.133Z,33.81
2022-08-27T17:09:35.071Z,33.42
2022-08-27T17:12:05.454Z,33.87
2022-08-27T17:14:38.047Z,34.05
2022-08-27T17:17:06.243Z,33.84
2022-08-27T17:19:34.922Z,33.21
2022-08-27T17:22:04.533Z,33.38
2022-08-27T17:24:32.578Z,33.23
2022-08-27T17:27:01.410Z,33.50
2022-08-27T17:29:30.075Z,33.54
2022-08-27T17:31:58.200Z,33.50
2022-08-27T17:34:28.866Z,33.63
2022-08-27T17:37:00.436Z,33.51
2022-08-27T17:39:31.143Z,33.51
2022-08-27T17:41:59.855Z,33.28
2022-08-27T17:44:31.781Z,32.79
2022-08-27T17:47:03.670Z,32.21
2022-08-27T17:49:31.975Z,32.49
2022-08-27T17:52:04.219Z,32.09
2022-08-27T17:54:41.229Z,31.98
2022-08-27T17:57:40.970Z,32.26
2022-08-27T18:00:11.829Z,32.12
2022-08-27T18:02:48.586Z,32.42
2022-08-27T18:05:18.833Z,32.37
2022-08-27T18:07:47.989Z,32.27
2022-08-27T18:10:18.889Z,32.42
2022-08-27T18:12:48.142Z,31.93
2022-08-27T18:15:18.653Z,31.59
2022-08-27T18:17:53.267Z,31.15
2022-08-27T18:20:27.901Z,30.86
2022-08-27T18:22:56.893Z,30.89
2022-08-27T18:25:29.082Z,31.06
2022-08-27T18:28:01.909Z,31.10
2022-08-27T18:30:31.750Z,30.97
2022-08-27T18:33:02.733Z,30.53
2022-08-27T18:35:32.738Z,31.00
2022-08-27T18:38:02.373Z,31.03
2022-08-27T18:40:38.341Z,31.35
2022-08-27T18:43:07.205Z,31.30
2022-08-27T18:45:37.768Z,31.30
2022-08-27T18:48:16.886Z,31.23
2022-08-27T18:50:49.087Z,31.20
2022-08-27T18:53:20.491Z,30.98
2022-08-27T18:55:53.514Z,31.27
2022-08-27T18:58:22.796Z,31.29
2022-08-27T19:00:56.469Z,31.35
2022-08-27T19:03:39.535Z,31.16
2022-08-27T19:06:09.683Z,31.23
2022-08-27T19:08:39.766Z,31.08
2022-08-27T19:11:10.730Z,31.28
2022-08-27T19:13:41.812Z,31.09
2022-08-27T19:16:18.934Z,30.67
2022-08-27T19:18:48.098Z,30.94
2022-08-27T19:21:16.566Z,30.74
2022-08-27T19:23:44.299Z,30.50
2022-08-27T19:26:19.347Z,30.57
2022-08-27T19:28:49.729Z,30.73
2022-08-27T19:31:20.086Z,30.81
2022-08-27T19:33:49.280Z,30.53
2022-08-27T19:36:20.176Z,30.41
2022-08-27T19:38:53.212Z,29.94
2022-08-27T19:41:27.295Z,29.85
2022-08-27T19:43:56.768Z,29.78
2022-08-27T19:46:26.026Z,29.63
2022-08-27T19:48:55.463Z,29.58
2022-08-27T19:51:24.647Z,29.65
2022-08-27T19:53:53.227Z,30.11
2022-08-27T19:56:21.542Z,30.01
2022-08-27T19:58:55.235Z,29.72
2022-08-27T20:01:25.502Z,29.73
2022-08-27T20:03:58.823Z,29.71
2022-08-27T20:06:28.188Z,29.84
2022-08-27T20:08:56.852Z,29.87
2022-08-27T20:11:25.645Z,29.58
2022-08-27T20:13:58.700Z,29.54
2022-08-27T20:16:28.833Z,29.69
2022-08-27T20:19:02.430Z,29.87
2022-08-27T20:21:37.260Z,29.73
2022-08-27T20:24:07.600Z,29.65
2022-08-27T20:26:39.352Z,29.59
2022-08-27T20:29:14.934Z,29.64
2022-08-27T20:32:04.363Z,28.97
2022-08-27T20:34:35.060Z,28.95
2022-08-27T20:37:04.007Z,29.12
2022-08-27T20:39:32.437Z,29.10
2022-08-27T20:42:01.640Z,29.01
2022-08-27T20:44:30.202Z,28.83
2022-08-27T20:47:00.171Z,29.30
2022-08-27T20:49:30.488Z,28.88
2022-08-27T20:52:03.984Z,28.66
2022-08-27T20:54:35.127Z,28.62
2022-08-27T20:57:04.407Z,28.75
2022-08-27T20:59:51.505Z,28.83
2022-08-27T21:02:24.089Z,28.90
2022-08-27T21:04:52.779Z,28.48
2022-08-27T21:07:23.118Z,28.86
2022-08-27T21:09:57.068Z,28.71
2022-08-27T21:12:28.321Z,28.87
2022-08-27T21:14:59.295Z,28.31
2022-08-27T21:17:29.021Z,28.38
2022-08-27T21:19:57.856Z,28.38
2022-08-27T21:22:25.631Z,28.37
2022-08-27T21:24:53.901Z,28.49
2022-08-27T21:27:22.056Z,28.18
2022-08-27T21:29:50.550Z,28.14
2022-08-27T21:32:19.288Z,28.30
2022-08-27T21:34:49.590Z,27.98
2022-08-27T21:37:18.521Z,27.96
2022-08-27T21:39:46.584Z,27.92
2022-08-27T21:42:15.823Z,28.19
2022-08-27T21:44:44.772Z,28.23
2022-08-27T21:47:13.002Z,27.99
2022-08-27T21:49:42.129Z,27.93
2022-08-27T21:52:11.892Z,28.02
2022-08-27T21:54:42.989Z,27.91
2022-08-27T21:57:14.053Z,27.94
2022-08-27T21:59:45.941Z,27.71
2022-08-27T22:02:38.747Z,27.32
2022-08-27T22:05:09.442Z,27.50
2022-08-27T22:07:37.318Z,27.42
2022-08-27T22:10:08.069Z,27.85
2022-08-27T22:12:38.400Z,27.80
2022-08-27T22:15:11.448Z,27.93
2022-08-27T22:17:41.477Z,28.21
2022-08-27T22:20:15.356Z,27.79
2022-08-27T22:22:46.241Z,27.13
2022-08-27T22:25:17.933Z,27.33
2022-08-27T22:27:47.910Z,27.20
2022-08-27T22:30:21.143Z,27.39
2022-08-27T22:32:54.928Z,27.31
2022-08-27T22:35:29.118Z,27.30
2022-08-27T22:38:01.294Z,27.19
2022-08-27T22:40:35.744Z,27.28
2022-08-27T22:43:09.647Z,27.08
2022-08-27T22:45:44.391Z,26.19
2022-08-27T22:48:15.567Z,26.13
2022-08-27T22:50:51.169Z,26.59
2022-08-27T22:53:21.768Z,26.89
2022-08-27T22:55:54.211Z,26.73
2022-08-27T22:58:25.161Z,26.73
2022-08-27T23:00:57.819Z,26.65
2022-08-27T23:03:27.578Z,26.75
2022-08-27T23:06:00.223Z,26.88
2022-08-27T23:08:32.701Z,26.75
2022-08-27T23:11:05.615Z,26.45
2022-08-27T23:13:35.275Z,26.54
2022-08-27T23:16:06.467Z,26.75
2022-08-27T23:18:36.782Z,26.53
2022-08-27T23:21:14.179Z,26.56
2022-08-27T23:23:44.328Z,26.94
2022-08-27T23:26:33.383Z,26.93
2022-08-27T23:29:04.574Z,26.90
2022-08-27T23:31:38.357Z,26.69
2022-08-27T23:34:10.633Z,25.45
2022-08-27T23:36:42.127Z,25.70
2022-08-27T23:39:12.019Z,25.95
2022-08-27T23:41:45.384Z,26.19
2022-08-27T23:44:16.540Z,26.48
2022-08-27T23:46:48.940Z,26.57
2022-08-27T23:49:22.430Z,26.69
2022-08-27T23:51:53.376Z,26.56
2022-08-27T23:54:24.494Z,26.87
2022-08-27T23:56:58.035Z,26.90
2022-08-27T23:59:30.458Z,26.95
